sensor_id;sensor_type;location;lat;lon;timestamp;P1;durP1;ratioP1;P2;durP2;ratioP2
44658;SDS011;30378;50.186;8.644;2022-09-23T00:01:07;6.20;;;2.22;;
44658;SDS011;30378;50.186;8.644;2022-09-23T00:03:37;4.18;;;1.85;;
44658;SDS011;30378;50.186;8.644;2022-09-23T00:06:10;3.97;;;2.63;;
44658;SDS011;30378;50.186;8.644;2022-09-23T00:08:45;4.03;;;1.95;;
44658;SDS011;30378;50.186;8.644;2022-09-23T00:11:31;4.32;;;1.55;;
44658;SDS011;30378;50.186;8.644;2022-09-23T00:14:16;3.33;;;1.67;;
44658;SDS011;30378;50.186;8.644;2022-09-23T00:16:43;3.40;;;2.05;;
44658;SDS011;30378;50.186;8.644;2022-09-23T00:19:09;4.80;;;2.03;;
44658;SDS011;30378;50.186;8.644;2022-09-23T00:21:36;5.15;;;2.33;;
44658;SDS011;30378;50.186;8.644;2022-09-23T00:24:03;3.13;;;1.92;;
44658;SDS011;30378;50.186;8.644;2022-09-23T00:26:30;7.15;;;3.10;;
44658;SDS011;30378;50.186;8.644;2022-09-23T00:28:57;4.07;;;2.30;;
44658;SDS011;30378;50.186;8.644;2022-09-23T00:31:24;4.25;;;2.20;;
44658;SDS011;30378;50.186;8.644;2022-09-23T00:33:56;4.32;;;1.85;;
44658;SDS011;30378;50.186;8.644;2022-09-23T00:36:26;4.57;;;2.58;;
44658;SDS011;30378;50.186;8.644;2022-09-23T00:38:54;4.47;;;2.40;;
44658;SDS011;30378;50.186;8.644;2022-09-23T00:41:21;7.05;;;2.70;;
44658;SDS011;30378;50.186;8.644;2022-09-23T00:43:52;5.18;;;2.40;;
44658;SDS011;30378;50.186;8.644;2022-09-23T00:49:10;3.78;;;1.88;;
44658;SDS011;30378;50.186;8.644;2022-09-23T00:51:54;3.50;;;1.77;;
44658;SDS011;30378;50.186;8.644;2022-09-23T00:54:26;5.15;;;2.50;;
44658;SDS011;30378;50.186;8.644;2022-09-23T00:56:54;4.60;;;2.13;;
44658;SDS011;30378;50.186;8.644;2022-09-23T00:59:23;4.63;;;2.30;;
44658;SDS011;30378;50.186;8.644;2022-09-23T01:01:51;5.15;;;2.33;;
44658;SDS011;30378;50.186;8.644;2022-09-23T01:04:21;5.53;;;2.20;;
44658;SDS011;30378;50.186;8.644;2022-09-23T01:06:50;3.97;;;2.22;;
44658;SDS011;30378;50.186;8.644;2022-09-23T01:09:16;5.45;;;2.17;;
44658;SDS011;30378;50.186;8.644;2022-09-23T01:11:47;3.92;;;2.70;;
44658;SDS011;30378;50.186;8.644;2022-09-23T01:31:54;3.83;;;1.85;;
44658;SDS011;30378;50.186;8.644;2022-09-23T01:34:33;5.30;;;2.25;;
44658;SDS011;30378;50.186;8.644;2022-09-23T01:37:10;5.55;;;1.98;;
44658;SDS011;30378;50.186;8.644;2022-09-23T01:40:02;4.28;;;2.20;;
44658;SDS011;30378;50.186;8.644;2022-09-23T01:42:37;4.47;;;2.15;;
44658;SDS011;30378;50.186;8.644;2022-09-23T01:45:32;4.78;;;1.98;;
44658;SDS011;30378;50.186;8.644;2022-09-23T01:51:28;7.70;;;2.47;;
44658;SDS011;30378;50.186;8.644;2022-09-23T01:54:02;4.60;;;2.42;;
44658;SDS011;30378;50.186;8.644;2022-09-23T01:59:39;5.78;;;2.50;;
44658;SDS011;30378;50.186;8.644;2022-09-23T02:02:15;3.88;;;1.90;;
44658;SDS011;30378;50.186;8.644;2022-09-23T02:05:06;4.85;;;3.17;;
44658;SDS011;30378;50.186;8.644;2022-09-23T02:07:42;4.85;;;1.98;;
44658;SDS011;30378;50.186;8.644;2022-09-23T02:10:20;5.57;;;2.08;;
44658;SDS011;30378;50.186;8.644;2022-09-23T02:12:55;4.47;;;2.17;;
44658;SDS011;30378;50.186;8.644;2022-09-23T02:15:28;4.55;;;1.95;;
44658;SDS011;30378;50.186;8.644;2022-09-23T02:18:02;4.55;;;2.10;;
44658;SDS011;30378;50.186;8.644;2022-09-23T02:20:39;4.28;;;2.15;;
44658;SDS011;30378;50.186;8.644;2022-09-23T02:23:19;4.55;;;2.08;;
44658;SDS011;30378;50.186;8.644;2022-09-23T02:25:55;5.13;;;2.95;;
44658;SDS011;30378;50.186;8.644;2022-09-23T02:36:52;3.35;;;2.10;;
44658;SDS011;30378;50.186;8.644;2022-09-23T02:39:30;5.75;;;2.47;;
44658;SDS011;30378;50.186;8.644;2022-09-23T02:42:09;4.68;;;2.05;;
44658;SDS011;30378;50.186;8.644;2022-09-23T02:44:41;5.32;;;2.42;;
44658;SDS011;30378;50.186;8.644;2022-09-23T02:47:08;3.78;;;2.78;;
44658;SDS011;30378;50.186;8.644;2022-09-23T02:52:03;5.13;;;2.40;;
44658;SDS011;30378;50.186;8.644;2022-09-23T02:54:31;6.25;;;2.25;;
44658;SDS011;30378;50.186;8.644;2022-09-23T02:57:00;3.30;;;1.65;;
44658;SDS011;30378;50.186;8.644;2022-09-23T02:59:30;5.40;;;2.47;;
44658;SDS011;30378;50.186;8.644;2022-09-23T03:02:02;5.82;;;3.20;;
44658;SDS011;30378;50.186;8.644;2022-09-23T03:09:53;5.65;;;2.00;;
44658;SDS011;30378;50.186;8.644;2022-09-23T03:12:44;4.13;;;2.15;;
44658;SDS011;30378;50.186;8.644;2022-09-23T03:15:32;4.82;;;2.17;;
44658;SDS011;30378;50.186;8.644;2022-09-23T03:20:44;4.28;;;2.38;;
44658;SDS011;30378;50.186;8.644;2022-09-23T03:23:16;4.43;;;2.10;;
44658;SDS011;30378;50.186;8.644;2022-09-23T03:25:51;4.80;;;1.80;;
44658;SDS011;30378;50.186;8.644;2022-09-23T03:28:21;6.13;;;2.47;;
44658;SDS011;30378;50.186;8.644;2022-09-23T03:30:51;3.95;;;2.35;;
44658;SDS011;30378;50.186;8.644;2022-09-23T03:33:21;6.10;;;2.45;;
44658;SDS011;30378;50.186;8.644;2022-09-23T03:38:44;4.80;;;1.90;;
44658;SDS011;30378;50.186;8.644;2022-09-23T03:41:20;7.75;;;2.63;;
44658;SDS011;30378;50.186;8.644;2022-09-23T03:43:56;4.13;;;2.17;;
44658;SDS011;30378;50.186;8.644;2022-09-23T03:46:25;4.53;;;2.30;;
44658;SDS011;30378;50.186;8.644;2022-09-23T03:48:57;7.55;;;2.72;;
44658;SDS011;30378;50.186;8.644;2022-09-23T03:51:31;5.28;;;2.65;;
44658;SDS011;30378;50.186;8.644;2022-09-23T03:53:58;6.50;;;2.58;;
44658;SDS011;30378;50.186;8.644;2022-09-23T03:56:25;5.00;;;2.78;;
44658;SDS011;30378;50.186;8.644;2022-09-23T03:58:52;5.50;;;2.72;;
44658;SDS011;30378;50.186;8.644;2022-09-23T04:01:19;7.13;;;2.90;;
44658;SDS011;30378;50.186;8.644;2022-09-23T04:03:46;3.75;;;2.22;;
44658;SDS011;30378;50.186;8.644;2022-09-23T04:06:14;4.70;;;2.70;;
44658;SDS011;30378;50.186;8.644;2022-09-23T04:08:41;7.00;;;2.30;;
44658;SDS011;30378;50.186;8.644;2022-09-23T04:11:08;4.18;;;2.33;;
44658;SDS011;30378;50.186;8.644;2022-09-23T04:13:35;4.93;;;2.85;;
44658;SDS011;30378;50.186;8.644;2022-09-23T04:16:02;6.50;;;2.50;;
44658;SDS011;30378;50.186;8.644;2022-09-23T04:18:29;5.05;;;2.17;;
44658;SDS011;30378;50.186;8.644;2022-09-23T04:20:57;4.90;;;2.22;;
44658;SDS011;30378;50.186;8.644;2022-09-23T04:23:25;5.97;;;2.42;;
44658;SDS011;30378;50.186;8.644;2022-09-23T04:28:20;4.32;;;2.17;;
44658;SDS011;30378;50.186;8.644;2022-09-23T04:30:47;7.13;;;2.65;;
44658;SDS011;30378;50.186;8.644;2022-09-23T04:33:14;4.97;;;2.03;;
44658;SDS011;30378;50.186;8.644;2022-09-23T04:35:42;5.10;;;2.60;;
44658;SDS011;30378;50.186;8.644;2022-09-23T04:38:09;5.18;;;2.67;;
44658;SDS011;30378;50.186;8.644;2022-09-23T04:40:38;4.60;;;2.22;;
44658;SDS011;30378;50.186;8.644;2022-09-23T04:43:05;5.45;;;2.20;;
44658;SDS011;30378;50.186;8.644;2022-09-23T04:45:34;4.65;;;2.63;;
44658;SDS011;30378;50.186;8.644;2022-09-23T04:48:01;5.15;;;2.38;;
44658;SDS011;30378;50.186;8.644;2022-09-23T04:50:31;4.63;;;2.15;;
44658;SDS011;30378;50.186;8.644;2022-09-23T04:52:59;4.95;;;2.65;;
44658;SDS011;30378;50.186;8.644;2022-09-23T04:55:27;3.50;;;1.88;;
44658;SDS011;30378;50.186;8.644;2022-09-23T04:57:54;7.53;;;2.95;;
44658;SDS011;30378;50.186;8.644;2022-09-23T05:00:21;6.28;;;3.00;;
44658;SDS011;30378;50.186;8.644;2022-09-23T05:02:52;7.28;;;3.05;;
44658;SDS011;30378;50.186;8.644;2022-09-23T05:05:19;7.05;;;3.70;;
44658;SDS011;30378;50.186;8.644;2022-09-23T05:07:46;11.52;;;4.93;;
44658;SDS011;30378;50.186;8.644;2022-09-23T05:12:40;9.40;;;3.47;;
44658;SDS011;30378;50.186;8.644;2022-09-23T05:15:08;8.43;;;4.47;;
44658;SDS011;30378;50.186;8.644;2022-09-23T05:17:35;6.65;;;3.72;;
44658;SDS011;30378;50.186;8.644;2022-09-23T05:20:03;6.03;;;3.33;;
44658;SDS011;30378;50.186;8.644;2022-09-23T05:22:30;5.90;;;3.70;;
44658;SDS011;30378;50.186;8.644;2022-09-23T05:24:57;5.38;;;2.85;;
44658;SDS011;30378;50.186;8.644;2022-09-23T05:27:27;6.45;;;3.08;;
44658;SDS011;30378;50.186;8.644;2022-09-23T05:34:47;8.38;;;3.17;;
44658;SDS011;30378;50.186;8.644;2022-09-23T05:37:14;7.13;;;3.33;;
44658;SDS011;30378;50.186;8.644;2022-09-23T05:39:41;6.95;;;3.47;;
44658;SDS011;30378;50.186;8.644;2022-09-23T05:42:08;8.98;;;4.05;;
44658;SDS011;30378;50.186;8.644;2022-09-23T05:44:35;7.10;;;4.22;;
44658;SDS011;30378;50.186;8.644;2022-09-23T05:47:02;6.07;;;3.83;;
44658;SDS011;30378;50.186;8.644;2022-09-23T05:49:29;8.02;;;3.47;;
44658;SDS011;30378;50.186;8.644;2022-09-23T05:52:08;7.15;;;3.60;;
44658;SDS011;30378;50.186;8.644;2022-09-23T05:54:35;4.53;;;2.65;;
44658;SDS011;30378;50.186;8.644;2022-09-23T05:57:03;6.45;;;2.70;;
44658;SDS011;30378;50.186;8.644;2022-09-23T05:59:31;5.22;;;3.08;;
44658;SDS011;30378;50.186;8.644;2022-09-23T06:04:26;9.00;;;4.05;;
44658;SDS011;30378;50.186;8.644;2022-09-23T06:06:53;7.20;;;4.25;;
44658;SDS011;30378;50.186;8.644;2022-09-23T06:09:20;6.22;;;3.92;;
44658;SDS011;30378;50.186;8.644;2022-09-23T06:11:47;5.30;;;3.42;;
44658;SDS011;30378;50.186;8.644;2022-09-23T06:14:14;6.25;;;3.17;;
44658;SDS011;30378;50.186;8.644;2022-09-23T06:16:40;6.20;;;2.95;;
44658;SDS011;30378;50.186;8.644;2022-09-23T06:19:08;6.15;;;3.58;;
44658;SDS011;30378;50.186;8.644;2022-09-23T06:21:36;5.45;;;2.72;;
44658;SDS011;30378;50.186;8.644;2022-09-23T06:24:04;5.50;;;2.60;;
44658;SDS011;30378;50.186;8.644;2022-09-23T06:26:32;5.93;;;2.55;;
44658;SDS011;30378;50.186;8.644;2022-09-23T06:29:01;5.45;;;3.53;;
44658;SDS011;30378;50.186;8.644;2022-09-23T06:31:28;4.13;;;2.75;;
44658;SDS011;30378;50.186;8.644;2022-09-23T06:33:55;6.68;;;3.08;;
44658;SDS011;30378;50.186;8.644;2022-09-23T06:36:30;5.90;;;2.80;;
44658;SDS011;30378;50.186;8.644;2022-09-23T06:39:05;6.32;;;2.95;;
44658;SDS011;30378;50.186;8.644;2022-09-23T06:41:32;4.93;;;2.92;;
44658;SDS011;30378;50.186;8.644;2022-09-23T06:43:59;5.72;;;2.65;;
44658;SDS011;30378;50.186;8.644;2022-09-23T06:46:25;4.75;;;2.72;;
44658;SDS011;30378;50.186;8.644;2022-09-23T06:48:53;6.20;;;2.33;;
44658;SDS011;30378;50.186;8.644;2022-09-23T06:51:20;4.75;;;2.80;;
44658;SDS011;30378;50.186;8.644;2022-09-23T06:56:15;4.68;;;2.45;;
44658;SDS011;30378;50.186;8.644;2022-09-23T06:58:43;4.07;;;2.30;;
44658;SDS011;30378;50.186;8.644;2022-09-23T07:03:38;4.53;;;2.75;;
44658;SDS011;30378;50.186;8.644;2022-09-23T07:06:05;6.07;;;2.45;;
44658;SDS011;30378;50.186;8.644;2022-09-23T07:08:33;5.57;;;2.60;;
44658;SDS011;30378;50.186;8.644;2022-09-23T07:11:01;5.82;;;2.20;;
44658;SDS011;30378;50.186;8.644;2022-09-23T07:13:30;4.65;;;2.90;;
44658;SDS011;30378;50.186;8.644;2022-09-23T07:16:02;10.07;;;3.00;;
44658;SDS011;30378;50.186;8.644;2022-09-23T07:18:31;4.50;;;2.10;;
44658;SDS011;30378;50.186;8.644;2022-09-23T07:21:05;4.22;;;1.73;;
44658;SDS011;30378;50.186;8.644;2022-09-23T07:23:40;6.78;;;2.20;;
44658;SDS011;30378;50.186;8.644;2022-09-23T07:26:08;4.93;;;1.80;;
44658;SDS011;30378;50.186;8.644;2022-09-23T07:28:35;4.65;;;2.75;;
44658;SDS011;30378;50.186;8.644;2022-09-23T07:31:04;4.88;;;2.53;;
44658;SDS011;30378;50.186;8.644;2022-09-23T07:33:34;3.65;;;2.08;;
44658;SDS011;30378;50.186;8.644;2022-09-23T07:36:05;5.45;;;2.45;;
44658;SDS011;30378;50.186;8.644;2022-09-23T07:38:34;4.43;;;2.67;;
44658;SDS011;30378;50.186;8.644;2022-09-23T07:41:06;4.75;;;2.38;;
44658;SDS011;30378;50.186;8.644;2022-09-23T07:43:36;4.78;;;3.08;;
44658;SDS011;30378;50.186;8.644;2022-09-23T07:46:04;5.28;;;1.80;;
44658;SDS011;30378;50.186;8.644;2022-09-23T07:48:41;6.18;;;2.65;;
44658;SDS011;30378;50.186;8.644;2022-09-23T07:51:10;4.40;;;1.88;;
44658;SDS011;30378;50.186;8.644;2022-09-23T07:53:48;4.20;;;2.65;;
44658;SDS011;30378;50.186;8.644;2022-09-23T07:56:17;3.22;;;1.67;;
44658;SDS011;30378;50.186;8.644;2022-09-23T07:58:45;3.67;;;2.72;;
44658;SDS011;30378;50.186;8.644;2022-09-23T08:01:26;3.95;;;2.67;;
44658;SDS011;30378;50.186;8.644;2022-09-23T08:04:09;3.28;;;1.52;;
44658;SDS011;30378;50.186;8.644;2022-09-23T08:06:43;3.80;;;1.95;;
44658;SDS011;30378;50.186;8.644;2022-09-23T08:09:15;2.92;;;1.60;;
44658;SDS011;30378;50.186;8.644;2022-09-23T08:11:43;3.38;;;2.65;;
44658;SDS011;30378;50.186;8.644;2022-09-23T08:14:11;3.50;;;1.95;;
44658;SDS011;30378;50.186;8.644;2022-09-23T08:16:40;3.13;;;2.08;;
44658;SDS011;30378;50.186;8.644;2022-09-23T08:19:07;3.65;;;2.50;;
44658;SDS011;30378;50.186;8.644;2022-09-23T08:21:35;3.55;;;2.60;;
44658;SDS011;30378;50.186;8.644;2022-09-23T08:24:05;2.78;;;1.83;;
44658;SDS011;30378;50.186;8.644;2022-09-23T08:26:38;4.45;;;1.70;;
44658;SDS011;30378;50.186;8.644;2022-09-23T08:29:05;3.88;;;2.08;;
44658;SDS011;30378;50.186;8.644;2022-09-23T08:31:35;3.75;;;2.53;;
44658;SDS011;30378;50.186;8.644;2022-09-23T08:34:02;5.47;;;3.13;;
44658;SDS011;30378;50.186;8.644;2022-09-23T08:36:29;7.00;;;2.22;;
44658;SDS011;30378;50.186;8.644;2022-09-23T08:38:57;3.47;;;2.42;;
44658;SDS011;30378;50.186;8.644;2022-09-23T08:41:30;3.17;;;2.67;;
44658;SDS011;30378;50.186;8.644;2022-09-23T08:47:11;4.18;;;2.63;;
44658;SDS011;30378;50.186;8.644;2022-09-23T08:50:00;5.78;;;2.65;;
44658;SDS011;30378;50.186;8.644;2022-09-23T08:52:54;4.75;;;3.05;;
44658;SDS011;30378;50.186;8.644;2022-09-23T08:55:32;4.30;;;1.90;;
44658;SDS011;30378;50.186;8.644;2022-09-23T09:01:09;4.00;;;2.80;;
44658;SDS011;30378;50.186;8.644;2022-09-23T09:03:57;4.60;;;3.17;;
44658;SDS011;30378;50.186;8.644;2022-09-23T09:06:28;4.13;;;2.22;;
44658;SDS011;30378;50.186;8.644;2022-09-23T09:12:03;4.18;;;2.38;;
44658;SDS011;30378;50.186;8.644;2022-09-23T09:14:49;5.35;;;2.72;;
44658;SDS011;30378;50.186;8.644;2022-09-23T09:19:53;4.57;;;2.47;;
44658;SDS011;30378;50.186;8.644;2022-09-23T09:25:18;6.03;;;2.35;;
44658;SDS011;30378;50.186;8.644;2022-09-23T09:27:52;4.93;;;2.30;;
44658;SDS011;30378;50.186;8.644;2022-09-23T09:30:21;7.13;;;3.50;;
44658;SDS011;30378;50.186;8.644;2022-09-23T09:32:54;5.18;;;2.95;;
44658;SDS011;30378;50.186;8.644;2022-09-23T09:38:07;3.55;;;2.10;;
44658;SDS011;30378;50.186;8.644;2022-09-23T09:40:34;6.88;;;3.63;;
44658;SDS011;30378;50.186;8.644;2022-09-23T09:43:15;5.00;;;2.40;;
44658;SDS011;30378;50.186;8.644;2022-09-23T09:45:58;3.45;;;2.08;;
44658;SDS011;30378;50.186;8.644;2022-09-23T09:49:01;5.72;;;2.85;;
44658;SDS011;30378;50.186;8.644;2022-09-23T09:51:36;5.38;;;2.10;;
44658;SDS011;30378;50.186;8.644;2022-09-23T09:54:21;4.93;;;3.42;;
44658;SDS011;30378;50.186;8.644;2022-09-23T09:56:48;5.28;;;2.17;;
44658;SDS011;30378;50.186;8.644;2022-09-23T09:59:18;5.45;;;2.45;;
44658;SDS011;30378;50.186;8.644;2022-09-23T10:04:58;4.90;;;2.63;;
44658;SDS011;30378;50.186;8.644;2022-09-23T10:07:29;5.65;;;2.33;;
44658;SDS011;30378;50.186;8.644;2022-09-23T10:09:57;4.30;;;2.85;;
44658;SDS011;30378;50.186;8.644;2022-09-23T10:12:54;5.20;;;3.25;;
44658;SDS011;30378;50.186;8.644;2022-09-23T10:15:31;4.40;;;3.40;;
44658;SDS011;30378;50.186;8.644;2022-09-23T10:18:17;5.60;;;3.13;;
44658;SDS011;30378;50.186;8.644;2022-09-23T10:20:46;4.47;;;3.28;;
44658;SDS011;30378;50.186;8.644;2022-09-23T10:23:15;5.35;;;2.85;;
44658;SDS011;30378;50.186;8.644;2022-09-23T10:25:59;4.22;;;3.10;;
44658;SDS011;30378;50.186;8.644;2022-09-23T10:31:07;5.10;;;3.15;;
44658;SDS011;30378;50.186;8.644;2022-09-23T10:33:43;6.70;;;3.10;;
44658;SDS011;30378;50.186;8.644;2022-09-23T10:36:17;3.90;;;2.10;;
44658;SDS011;30378;50.186;8.644;2022-09-23T10:38:44;4.38;;;2.25;;
44658;SDS011;30378;50.186;8.644;2022-09-23T10:41:39;4.43;;;2.00;;
44658;SDS011;30378;50.186;8.644;2022-09-23T10:47:51;4.10;;;2.88;;
44658;SDS011;30378;50.186;8.644;2022-09-23T10:50:30;5.10;;;2.22;;
44658;SDS011;30378;50.186;8.644;2022-09-23T10:58:45;3.53;;;2.50;;
44658;SDS011;30378;50.186;8.644;2022-09-23T11:01:21;4.78;;;2.35;;
44658;SDS011;30378;50.186;8.644;2022-09-23T11:10:08;5.80;;;2.55;;
44658;SDS011;30378;50.186;8.644;2022-09-23T11:13:10;4.40;;;2.10;;
44658;SDS011;30378;50.186;8.644;2022-09-23T11:15:43;4.00;;;2.05;;
44658;SDS011;30378;50.186;8.644;2022-09-23T11:21:03;5.00;;;2.45;;
44658;SDS011;30378;50.186;8.644;2022-09-23T11:26:36;4.40;;;2.75;;
44658;SDS011;30378;50.186;8.644;2022-09-23T11:37:55;3.50;;;1.52;;
44658;SDS011;30378;50.186;8.644;2022-09-23T11:40:35;2.75;;;1.17;;
44658;SDS011;30378;50.186;8.644;2022-09-23T11:43:19;3.70;;;1.90;;
44658;SDS011;30378;50.186;8.644;2022-09-23T11:48:44;4.85;;;1.95;;
44658;SDS011;30378;50.186;8.644;2022-09-23T11:56:30;2.88;;;1.10;;
44658;SDS011;30378;50.186;8.644;2022-09-23T11:59:05;2.97;;;1.10;;
44658;SDS011;30378;50.186;8.644;2022-09-23T12:01:44;2.35;;;1.35;;
44658;SDS011;30378;50.186;8.644;2022-09-23T12:06:54;2.65;;;0.98;;
44658;SDS011;30378;50.186;8.644;2022-09-23T12:18:17;4.55;;;1.38;;
44658;SDS011;30378;50.186;8.644;2022-09-23T12:21:17;2.70;;;1.42;;
44658;SDS011;30378;50.186;8.644;2022-09-23T12:27:05;3.55;;;1.50;;
44658;SDS011;30378;50.186;8.644;2022-09-23T12:29:36;3.22;;;1.60;;
44658;SDS011;30378;50.186;8.644;2022-09-23T12:32:05;2.92;;;1.45;;
44658;SDS011;30378;50.186;8.644;2022-09-23T12:34:38;3.67;;;1.23;;
44658;SDS011;30378;50.186;8.644;2022-09-23T12:37:24;2.67;;;1.13;;
44658;SDS011;30378;50.186;8.644;2022-09-23T12:42:24;2.80;;;1.48;;
44658;SDS011;30378;50.186;8.644;2022-09-23T12:45:15;5.15;;;1.42;;
44658;SDS011;30378;50.186;8.644;2022-09-23T12:48:03;2.35;;;1.88;;
44658;SDS011;30378;50.186;8.644;2022-09-23T12:50:51;3.85;;;1.42;;
44658;SDS011;30378;50.186;8.644;2022-09-23T12:56:00;3.28;;;2.45;;
44658;SDS011;30378;50.186;8.644;2022-09-23T13:03:54;4.38;;;2.50;;
44658;SDS011;30378;50.186;8.644;2022-09-23T13:06:42;3.88;;;2.05;;
44658;SDS011;30378;50.186;8.644;2022-09-23T13:09:36;3.90;;;1.13;;
44658;SDS011;30378;50.186;8.644;2022-09-23T13:12:09;3.30;;;2.00;;
44658;SDS011;30378;50.186;8.644;2022-09-23T13:14:45;3.80;;;2.20;;
44658;SDS011;30378;50.186;8.644;2022-09-23T13:17:29;3.50;;;1.17;;
44658;SDS011;30378;50.186;8.644;2022-09-23T13:20:04;3.03;;;1.88;;
44658;SDS011;30378;50.186;8.644;2022-09-23T13:25:22;2.75;;;1.50;;
44658;SDS011;30378;50.186;8.644;2022-09-23T13:27:53;3.13;;;1.65;;
44658;SDS011;30378;50.186;8.644;2022-09-23T13:30:22;4.18;;;1.23;;
44658;SDS011;30378;50.186;8.644;2022-09-23T13:32:58;4.05;;;1.10;;
44658;SDS011;30378;50.186;8.644;2022-09-23T13:35:36;3.45;;;1.25;;
44658;SDS011;30378;50.186;8.644;2022-09-23T13:38:10;4.13;;;1.73;;
44658;SDS011;30378;50.186;8.644;2022-09-23T13:40:44;2.70;;;1.83;;
44658;SDS011;30378;50.186;8.644;2022-09-23T13:43:22;3.60;;;1.40;;
44658;SDS011;30378;50.186;8.644;2022-09-23T13:45:53;3.30;;;1.25;;
44658;SDS011;30378;50.186;8.644;2022-09-23T13:48:21;4.68;;;1.70;;
44658;SDS011;30378;50.186;8.644;2022-09-23T13:50:51;2.55;;;1.38;;
44658;SDS011;30378;50.186;8.644;2022-09-23T13:53:27;3.28;;;1.92;;
44658;SDS011;30378;50.186;8.644;2022-09-23T13:56:08;3.22;;;1.20;;
44658;SDS011;30378;50.186;8.644;2022-09-23T13:58:39;2.08;;;0.90;;
44658;SDS011;30378;50.186;8.644;2022-09-23T14:01:07;4.32;;;1.33;;
44658;SDS011;30378;50.186;8.644;2022-09-23T14:03:36;3.17;;;1.20;;
44658;SDS011;30378;50.186;8.644;2022-09-23T14:06:11;4.43;;;1.42;;
44658;SDS011;30378;50.186;8.644;2022-09-23T14:08:44;3.75;;;1.13;;
44658;SDS011;30378;50.186;8.644;2022-09-23T14:11:19;3.55;;;1.77;;
44658;SDS011;30378;50.186;8.644;2022-09-23T14:13:59;5.50;;;1.63;;
44658;SDS011;30378;50.186;8.644;2022-09-23T14:16:37;3.63;;;1.80;;
44658;SDS011;30378;50.186;8.644;2022-09-23T14:19:06;3.90;;;1.38;;
44658;SDS011;30378;50.186;8.644;2022-09-23T14:21:39;2.70;;;1.33;;
44658;SDS011;30378;50.186;8.644;2022-09-23T14:26:35;3.88;;;2.08;;
44658;SDS011;30378;50.186;8.644;2022-09-23T14:29:05;5.00;;;1.30;;
44658;SDS011;30378;50.186;8.644;2022-09-23T14:31:48;4.68;;;1.20;;
44658;SDS011;30378;50.186;8.644;2022-09-23T14:40:18;5.85;;;1.90;;
44658;SDS011;30378;50.186;8.644;2022-09-23T14:42:56;3.90;;;1.90;;
44658;SDS011;30378;50.186;8.644;2022-09-23T14:45:25;2.83;;;1.33;;
44658;SDS011;30378;50.186;8.644;2022-09-23T14:47:56;3.15;;;1.95;;
44658;SDS011;30378;50.186;8.644;2022-09-23T14:50:27;3.20;;;2.13;;
44658;SDS011;30378;50.186;8.644;2022-09-23T14:53:04;4.20;;;1.92;;
44658;SDS011;30378;50.186;8.644;2022-09-23T14:55:52;2.15;;;1.10;;
44658;SDS011;30378;50.186;8.644;2022-09-23T15:04:10;4.50;;;1.27;;
44658;SDS011;30378;50.186;8.644;2022-09-23T15:07:03;4.40;;;1.42;;
44658;SDS011;30378;50.186;8.644;2022-09-23T15:09:40;4.50;;;1.30;;
44658;SDS011;30378;50.186;8.644;2022-09-23T15:12:16;6.22;;;2.22;;
44658;SDS011;30378;50.186;8.644;2022-09-23T15:14:49;3.20;;;1.85;;
44658;SDS011;30378;50.186;8.644;2022-09-23T15:19:53;3.72;;;1.95;;
44658;SDS011;30378;50.186;8.644;2022-09-23T15:22:23;4.05;;;1.77;;
44658;SDS011;30378;50.186;8.644;2022-09-23T15:24:51;3.88;;;2.17;;
44658;SDS011;30378;50.186;8.644;2022-09-23T15:27:25;5.30;;;2.67;;
44658;SDS011;30378;50.186;8.644;2022-09-23T15:29:53;3.03;;;1.30;;
44658;SDS011;30378;50.186;8.644;2022-09-23T15:32:21;6.47;;;1.33;;
44658;SDS011;30378;50.186;8.644;2022-09-23T15:34:48;3.05;;;1.50;;
44658;SDS011;30378;50.186;8.644;2022-09-23T15:37:16;3.75;;;1.20;;
44658;SDS011;30378;50.186;8.644;2022-09-23T15:39:43;3.03;;;2.10;;
44658;SDS011;30378;50.186;8.644;2022-09-23T15:42:10;2.47;;;1.25;;
44658;SDS011;30378;50.186;8.644;2022-09-23T15:44:37;4.38;;;2.20;;
44658;SDS011;30378;50.186;8.644;2022-09-23T15:47:04;4.22;;;1.60;;
44658;SDS011;30378;50.186;8.644;2022-09-23T15:49:32;3.95;;;1.92;;
44658;SDS011;30378;50.186;8.644;2022-09-23T15:52:02;5.25;;;1.45;;
44658;SDS011;30378;50.186;8.644;2022-09-23T15:54:31;3.80;;;1.40;;
44658;SDS011;30378;50.186;8.644;2022-09-23T15:56:59;4.63;;;1.45;;
44658;SDS011;30378;50.186;8.644;2022-09-23T15:59:27;5.07;;;1.77;;
44658;SDS011;30378;50.186;8.644;2022-09-23T16:01:56;3.03;;;1.48;;
44658;SDS011;30378;50.186;8.644;2022-09-23T16:04:27;3.78;;;1.85;;
44658;SDS011;30378;50.186;8.644;2022-09-23T16:06:56;4.28;;;2.30;;
44658;SDS011;30378;50.186;8.644;2022-09-23T16:09:24;7.05;;;2.83;;
44658;SDS011;30378;50.186;8.644;2022-09-23T16:11:53;6.05;;;1.95;;
44658;SDS011;30378;50.186;8.644;2022-09-23T16:14:20;3.33;;;1.80;;
44658;SDS011;30378;50.186;8.644;2022-09-23T16:16:48;4.75;;;1.70;;
44658;SDS011;30378;50.186;8.644;2022-09-23T16:19:15;5.15;;;2.38;;
44658;SDS011;30378;50.186;8.644;2022-09-23T16:21:43;4.03;;;2.30;;
44658;SDS011;30378;50.186;8.644;2022-09-23T16:24:13;2.90;;;2.30;;
44658;SDS011;30378;50.186;8.644;2022-09-23T16:26:42;4.25;;;1.90;;
44658;SDS011;30378;50.186;8.644;2022-09-23T16:29:10;6.40;;;2.25;;
44658;SDS011;30378;50.186;8.644;2022-09-23T16:31:38;3.67;;;1.48;;
44658;SDS011;30378;50.186;8.644;2022-09-23T16:34:05;4.50;;;1.90;;
44658;SDS011;30378;50.186;8.644;2022-09-23T16:36:33;4.68;;;1.60;;
44658;SDS011;30378;50.186;8.644;2022-09-23T16:39:05;5.78;;;2.10;;
44658;SDS011;30378;50.186;8.644;2022-09-23T16:41:35;3.90;;;1.98;;
44658;SDS011;30378;50.186;8.644;2022-09-23T16:44:03;5.80;;;1.90;;
44658;SDS011;30378;50.186;8.644;2022-09-23T16:46:33;5.85;;;1.50;;
44658;SDS011;30378;50.186;8.644;2022-09-23T16:49:00;4.00;;;1.95;;
44658;SDS011;30378;50.186;8.644;2022-09-23T16:51:28;5.15;;;2.50;;
44658;SDS011;30378;50.186;8.644;2022-09-23T16:53:58;4.53;;;1.50;;
44658;SDS011;30378;50.186;8.644;2022-09-23T16:58:54;5.35;;;1.77;;
44658;SDS011;30378;50.186;8.644;2022-09-23T17:01:24;6.32;;;2.00;;
44658;SDS011;30378;50.186;8.644;2022-09-23T17:04:12;4.55;;;1.65;;
44658;SDS011;30378;50.186;8.644;2022-09-23T17:06:41;3.67;;;1.33;;
44658;SDS011;30378;50.186;8.644;2022-09-23T17:09:09;3.75;;;1.35;;
44658;SDS011;30378;50.186;8.644;2022-09-23T17:11:37;4.40;;;1.67;;
44658;SDS011;30378;50.186;8.644;2022-09-23T17:16:32;3.30;;;1.60;;
44658;SDS011;30378;50.186;8.644;2022-09-23T17:19:04;5.00;;;1.58;;
44658;SDS011;30378;50.186;8.644;2022-09-23T17:21:32;5.07;;;2.15;;
44658;SDS011;30378;50.186;8.644;2022-09-23T17:23:59;3.58;;;1.52;;
44658;SDS011;30378;50.186;8.644;2022-09-23T17:26:27;3.97;;;1.63;;
44658;SDS011;30378;50.186;8.644;2022-09-23T17:28:55;3.10;;;1.52;;
44658;SDS011;30378;50.186;8.644;2022-09-23T17:31:23;3.20;;;1.50;;
44658;SDS011;30378;50.186;8.644;2022-09-23T17:33:51;4.38;;;1.80;;
44658;SDS011;30378;50.186;8.644;2022-09-23T17:36:18;3.67;;;2.17;;
44658;SDS011;30378;50.186;8.644;2022-09-23T17:38:46;3.05;;;2.20;;
44658;SDS011;30378;50.186;8.644;2022-09-23T17:41:14;4.68;;;1.40;;
44658;SDS011;30378;50.186;8.644;2022-09-23T17:43:43;6.97;;;2.00;;
44658;SDS011;30378;50.186;8.644;2022-09-23T17:46:13;4.13;;;1.55;;
44658;SDS011;30378;50.186;8.644;2022-09-23T17:48:44;3.22;;;1.50;;
44658;SDS011;30378;50.186;8.644;2022-09-23T17:51:12;3.92;;;2.10;;
44658;SDS011;30378;50.186;8.644;2022-09-23T17:53:42;4.30;;;1.50;;
44658;SDS011;30378;50.186;8.644;2022-09-23T17:58:42;4.25;;;1.60;;
44658;SDS011;30378;50.186;8.644;2022-09-23T18:01:11;3.92;;;2.33;;
44658;SDS011;30378;50.186;8.644;2022-09-23T18:03:40;3.30;;;2.08;;
44658;SDS011;30378;50.186;8.644;2022-09-23T18:06:17;4.43;;;2.47;;
44658;SDS011;30378;50.186;8.644;2022-09-23T18:08:47;3.63;;;1.13;;
44658;SDS011;30378;50.186;8.644;2022-09-23T18:13:48;3.70;;;1.67;;
44658;SDS011;30378;50.186;8.644;2022-09-23T18:16:15;3.60;;;1.60;;
44658;SDS011;30378;50.186;8.644;2022-09-23T18:18:42;2.67;;;1.67;;